Hurricane Symbol View the latest observations near East Pacific Tropical Storm Bud.

Station SCXA2 - Scull Island, AK Image indicating link to RSS feed of recent meteorological observations for station SCXA2


Conditions at SCXA2 as of
(5:53 am AKDT)
1353 GMT on 07/25/2024:
     

Click on the graph icon in the table below to see a time series plot of the last five days of that observation.

5-day plot - Wind Direction Wind Direction (WDIR):ESE ( 120 deg true )
5-day plot - Wind Speed Wind Speed (WSPD): 9 kts
5-day plot - Wind Gust Wind Gust (GST): 12 kts
5-day plot - Air Temperature Air Temperature (ATMP): 51.3 °F
5-day plot - Wind Chill Wind Chill (CHILL): 47.5 °F
5-day plot - Wind Speed at 10 Meters Wind Speed at 10 meters (WSPD10M): 12 kts
5-day plot - Wind Speed at 20 Meters Wind Speed at 20 meters (WSPD20M): 12 kts
5-day plot -  Wind Speed, Wind Gust and Atmospheric Pressure Combined plot of Wind Speed, Gust, and Air Pressure
Previous observations
TIME
(AKDT)
5-day plot - Wind Direction
WDIR
 
5-day plot - Wind Speed
WSPD
kts
5-day plot - Wind Gust
GST
kts
5-day plot - Wave Height
WVHT
ft
5-day plot - Dominant Wave Period
DPD
sec
5-day plot - Average Wave Period
APD
sec
5-day plot - Mean Wave Direction
MWD
 
5-day plot - Atmospheric Pressure
PRES
in
5-day plot - Pressure Tendency
PTDY
in
5-day plot - Air Temperature
ATMP
°F
5-day plot - Water Temperature
WTMP
°F
5-day plot - Dew Point
DEWP
°F
5-day plot - Salinity
SAL
psu
5-day plot - Visibility
VIS
nmi
5-day plot - Tide (above MLLW)
TIDE
ft
2024-07-25 05:42 amESE 9 10------ 51.3-----
2024-07-25 05:32 am SE 9 11------ 51.6-----
2024-07-25 05:23 am SE 10 12------ 51.6-----
2024-07-25 05:13 am SE 9 11------ 51.6-----
2024-07-25 05:02 am SE 9 13------ 51.6-----
2024-07-25 04:52 am SE 12 13------ 51.3-----
2024-07-25 04:42 amESE 11 13------ 51.3-----
2024-07-25 04:32 am SE 10 12------ 51.1-----
2024-07-25 04:22 am SE 10 11------ 51.3-----
2024-07-25 04:12 amESE 10 12------ 51.4-----
2024-07-25 04:02 am SE 10 12------ 51.1-----
2024-07-25 03:52 amESE 11 13------ 50.9-----
2024-07-25 03:42 amESE 11 14------ 51.1-----
2024-07-25 03:32 amESE 10 13------ 51.1-----
2024-07-25 03:22 amESE 12 14------ 51.1-----
2024-07-25 03:12 am SE 10 13------ 51.3-----
2024-07-25 03:02 am SE 9 11------ 51.6-----
2024-07-25 02:52 am SE 10 13------ 51.8-----
2024-07-25 02:42 amESE 9 12------ 52.0-----
2024-07-25 02:33 am SE 7 11------ 52.0-----
2024-07-25 02:22 am SE 9 11------ 51.8-----
2024-07-25 02:12 am SE 9 12------ 52.0-----
2024-07-25 02:02 amESE 9 11------ 52.3-----
2024-07-25 01:52 am SE 10 12------ 52.2-----
2024-07-25 01:42 am SE 11 13------ 52.0-----
2024-07-25 01:33 amESE 11 13------ 52.0-----
2024-07-25 01:22 amESE 11 13------ 51.8-----
2024-07-25 01:12 amESE 11 12------ 51.6-----
2024-07-25 01:02 amESE 11 13------ 51.4-----
2024-07-25 12:52 amESE 11 13------ 51.8-----
2024-07-25 12:42 amESE 11 12------ 52.2-----
2024-07-25 12:32 amESE 11 12------ 52.2-----
2024-07-25 12:22 amESE 10 12------ 52.5-----
2024-07-25 12:13 am E 11 13------ 52.5-----
2024-07-25 12:02 am E 13 14------ 52.7-----
2024-07-24 11:52 pmESE 11 13------ 52.9-----
2024-07-24 11:42 pmESE 10 12------ 52.7-----
2024-07-24 11:32 pmESE 12 14------ 52.7-----
2024-07-24 11:22 pmESE 10 12------ 52.9-----
2024-07-24 11:12 pmESE 9 11------ 52.7-----
2024-07-24 11:02 pmESE 9 10------ 52.7-----
2024-07-24 10:52 pmESE 10 12------ 52.5-----
2024-07-24 10:42 pmESE 10 12------ 52.7-----
2024-07-24 10:32 pmESE 8 10------ 52.7-----
2024-07-24 10:22 pmESE 9 10------ 52.5-----
2024-07-24 10:12 pmESE 7 9------ 52.5-----
2024-07-24 10:02 pm SE 9 10------ 52.7-----
2024-07-24 09:52 pm SE 9 11------ 52.7-----
2024-07-24 09:42 pmESE 11 13------ 53.1-----
2024-07-24 09:32 pmESE 11 13------ 52.9-----
2024-07-24 09:22 pm E 12 15------ 52.9-----
2024-07-24 09:13 pm E 14 16------ 52.9-----
2024-07-24 09:02 pm E 16 18------ 52.7-----
2024-07-24 08:52 pm E 16 17------ 52.7-----
2024-07-24 08:43 pmESE 14 17------ 52.3-----
2024-07-24 08:33 pm E 14 16------ 52.9-----
2024-07-24 08:23 pm E 14 16------ 52.9-----
2024-07-24 08:12 pm E 15 17------ 52.2-----
2024-07-24 08:02 pm E 15 17------ 52.7-----
2024-07-24 07:52 pm E 15 17------ 53.4-----
2024-07-24 07:42 pm E 14 15------ 53.2-----
2024-07-24 07:32 pm E 14 16------ 53.1-----
2024-07-24 07:22 pm E 13 16------ 52.9-----
2024-07-24 07:12 pmESE 13 15------ 53.2-----
2024-07-24 07:02 pmESE 11 16------ 53.2-----
2024-07-24 06:52 pmESE 13 15------ 53.2-----
2024-07-24 06:42 pmESE 12 14------ 53.4-----
2024-07-24 06:32 pmESE 11 13------ 53.1-----
2024-07-24 06:22 pm E 11 13------ 52.9-----
2024-07-24 06:12 pm E 13 15------ 52.9-----
2024-07-24 06:02 pmESE 15 17------ 52.7-----
2024-07-24 05:52 pm E 16 18------ 52.7-----
2024-07-24 05:42 pmESE 17 19------ 52.7-----
2024-07-24 05:32 pmESE 16 18------ 52.5-----
2024-07-24 05:23 pmESE 17 19------ 52.5-----
2024-07-24 05:12 pmESE 16 18------ 52.9-----
2024-07-24 05:03 pmESE 15 19------ 53.1-----
2024-07-24 04:53 pmESE 14 16------ 53.4-----
2024-07-24 04:42 pmESE 15 16------ 53.4-----
2024-07-24 04:32 pmESE 16 19------ 52.7-----
2024-07-24 04:22 pmESE 19 21------ 52.5-----
2024-07-24 04:12 pmESE 19 21------ 52.5-----
2024-07-24 03:52 pm E 18 20------ 53.1-----
2024-07-24 03:42 pmESE 18 20------ 53.4-----
2024-07-24 03:32 pmESE 18 21------ 53.4-----
2024-07-24 03:22 pmESE 19 21------ 53.6-----
2024-07-24 03:12 pmESE 20 22------ 53.8-----
2024-07-24 03:02 pmESE 18 20------ 54.1-----
2024-07-24 02:52 pmESE 18 20------ 54.1-----
2024-07-24 02:42 pm E 16 19------ 53.8-----
2024-07-24 02:32 pmESE 15 17------ 53.6-----
2024-07-24 02:22 pmESE 14 16------ 53.4-----
2024-07-24 02:13 pmESE 15 17------ 53.4-----
2024-07-24 02:02 pm E 12 16------ 53.2-----
2024-07-24 01:53 pmESE 14 17------ 53.2-----
2024-07-24 01:42 pmESE 16 22------ 53.4-----
2024-07-24 01:32 pmESE 15 17------ 53.4-----
2024-07-24 01:22 pmESE 13 14------ 52.9-----
2024-07-24 01:12 pm E 14 16------ 52.7-----
2024-07-24 01:03 pm E 16 18------ 52.9-----
2024-07-24 12:52 pmESE 15 18------ 52.7-----
2024-07-24 11:02 amESE 12 14------ 53.1-----
2024-07-24 10:52 amESE 12 14------ 53.1-----
2024-07-24 10:42 amESE 11 13------ 52.9-----
2024-07-24 10:32 amESE 11 13------ 52.9-----
2024-07-24 10:23 amESE 11 13------ 52.9-----
2024-07-24 10:12 amESE 12 14------ 52.7-----
2024-07-24 10:02 amESE 11 13------ 52.5-----
2024-07-24 09:52 am E 12 13------ 52.3-----
2024-07-24 09:42 am E 11 13------ 52.0-----
2024-07-24 09:33 amESE 11 13------ 51.8-----
2024-07-24 09:22 amESE 9 11------ 51.8-----
2024-07-24 09:12 amESE 8 10------ 51.8-----
2024-07-24 09:02 amESE 10 11------ 51.4-----
2024-07-24 08:52 amESE 10 12------ 51.4-----
2024-07-24 08:43 amESE 9 11------ 51.3-----
2024-07-24 08:33 amESE 10 12------ 51.3-----
2024-07-24 08:23 amESE 9 11------ 51.3-----
2024-07-24 08:12 amESE 8 9------ 51.6-----
2024-07-24 08:02 amESE 10 11------ 51.6-----
2024-07-24 07:52 am SE 10 12------ 51.3-----
2024-07-24 07:42 amESE 13 15------ 51.1-----
2024-07-24 07:32 amESE 10 13------ 51.1-----
2024-07-24 07:22 amESE 11 13------ 51.1-----
2024-07-24 07:12 amESE 10 14------ 51.3-----
2024-07-24 07:03 amESE 5 6------ 51.3-----
2024-07-24 06:52 am SE 6 8------ 51.1-----
2024-07-24 06:42 amESE 10 12------ 50.9-----
2024-07-24 06:32 amESE 10 12------ 51.1-----
2024-07-24 06:22 amESE 7 9------ 51.1-----
2024-07-24 06:12 amESE 8 10------ 51.1-----
2024-07-24 06:02 am SE 8 10------ 50.9-----
2024-07-24 05:52 amESE 9 11------ 50.9-----